Aérodrome :
LOGIN :

S'inscrire | Disclaimer

   EN    FR    IT 

 










Légende :    VFR   VFR Marginal   IFR   IFR Intensif   IFR Très Intensif
Visi : 
Plafond : 
>= 8 km
>= 3000ft
5 à 8 km
1000 à 3000 ft
1500m à 5 km
500 à 1000 ft
800 à 1500m
200 à 500 ft
< 800m
< 200 ft
Symboles :   Orages  Brouillard  Fortes neiges  Fortes précipitations  Vent > 20 kt
SIGMETs :   Divers  Orages  Givrage  Turbulence  Onde Orograph.  Cendres Volcan.






- Altitude de l'aérodrome : 117 ft
- Code IATA : NWI


EGSH - Norwich

DERNIER METAR :
  • 200720Z 32007KT 6000 -RA FEW006 SCT014 BKN027 04/02 Q1032

METARs EXPIRÉS :
  • 200650Z 32009KT 290V350 6000 -RA FEW006 SCT014 BKN027 04/01 Q1031
  • 200620Z AUTO 32007KT 9999 -RA FEW006/// SCT020/// 04/01 Q1031
  • 200550Z AUTO 33010KT 9999 FEW023/// 04/01 Q1031
  • 200520Z AUTO 33008KT 9999 FEW003/// 04/01 Q1031

TAF TAF EGSH
Valide du 20 à 06h jusqu'au 20 à 15h UTC


200455Z 2006/2015 30009KT 9999 FEW030
PROB40
TEMPO 2006/2015 21015G25KT 7000 SHRA BKN014
PROB30
TEMPO 2006/2012 4000 SHSN
ATIS : +44 1603 420 640



MET'MAP, la Météo Aéronautique d'un coup d'oeil ! - Copyright ORBIFLY Décembre 2007 - Disclaimer

ORBIFLY MET'MAP TEAM :

Programmation & Développement : Alexandra Zaïnal
Sur une idée originale de : Baudouin d'Aumeries
Assistance à la programmation : Marc-Olivier Méhu
Soutien technique & logistique : Manuel Goepfert

Contact : metmap@orbifly.com




SOURCES & CREDITS :

   NOAA